createdAt,value
2019-04-05T00:01:34.177Z,18.30
2019-04-05T00:04:03.148Z,17.23
2019-04-05T00:06:32.651Z,16.85
2019-04-05T00:09:01.864Z,16.82
2019-04-05T00:11:31.556Z,16.90
2019-04-05T00:14:00.745Z,18.00
2019-04-05T00:16:29.956Z,17.20
2019-04-05T00:18:59.147Z,17.37
2019-04-05T00:21:28.349Z,19.48
2019-04-05T00:23:57.958Z,18.98
2019-04-05T00:26:27.152Z,17.10
2019-04-05T00:28:56.455Z,17.75
2019-04-05T00:31:25.951Z,17.75
2019-04-05T00:33:54.827Z,18.02
2019-04-05T00:36:24.456Z,18.27
2019-04-05T00:38:53.851Z,18.27
2019-04-05T00:41:23.084Z,19.97
2019-04-05T00:43:52.020Z,18.20
2019-04-05T00:46:21.240Z,18.25
2019-04-05T00:48:50.531Z,17.67
2019-04-05T00:51:19.836Z,18.27
2019-04-05T00:53:49.127Z,19.60
2019-04-05T00:56:18.119Z,18.70
2019-04-05T00:58:47.432Z,19.37
2019-04-05T01:01:16.289Z,18.07
2019-04-05T01:03:45.931Z,17.17
2019-04-05T01:06:14.887Z,17.70
2019-04-05T01:08:44.533Z,17.87
2019-04-05T01:11:14.144Z,18.83
2019-04-05T01:13:43.339Z,17.92
2019-04-05T01:16:12.370Z,19.07
2019-04-05T01:18:42.443Z,18.92
2019-04-05T01:21:15.327Z,18.33
2019-04-05T01:23:45.228Z,18.17
2019-04-05T01:26:15.192Z,18.92
2019-04-05T01:28:44.865Z,18.13
2019-04-05T01:31:14.060Z,18.55
2019-04-05T01:33:43.669Z,19.82
2019-04-05T01:36:13.372Z,19.05
2019-04-05T01:38:42.408Z,17.77
2019-04-05T01:41:12.289Z,19.60
2019-04-05T01:43:41.340Z,19.87
2019-04-05T01:46:10.885Z,17.62
2019-04-05T01:48:40.281Z,17.82
2019-04-05T01:51:09.721Z,19.00
2019-04-05T01:53:39.088Z,18.48
2019-04-05T01:56:08.808Z,19.37
2019-04-05T01:58:37.852Z,17.75
2019-04-05T02:01:06.909Z,18.85
2019-04-05T02:03:36.289Z,19.57
2019-04-05T02:06:05.688Z,19.60
2019-04-05T02:08:34.735Z,18.40
2019-04-05T02:11:04.164Z,18.00
2019-04-05T02:13:33.797Z,19.90
2019-04-05T02:16:06.668Z,20.17
2019-04-05T02:18:34.439Z,18.67
2019-04-05T02:21:03.468Z,19.57
2019-04-05T02:23:32.832Z,18.37
2019-04-05T02:26:02.449Z,18.02
2019-04-05T02:28:31.780Z,19.95
2019-04-05T02:31:01.197Z,20.32
2019-04-05T02:33:30.584Z,21.67
2019-04-05T02:35:59.640Z,18.75
2019-04-05T02:38:29.249Z,20.70
2019-04-05T02:41:01.015Z,21.30
2019-04-05T02:43:32.292Z,19.67
2019-04-05T02:46:02.511Z,22.27
2019-04-05T02:48:34.805Z,22.27
2019-04-05T02:51:07.196Z,21.40
2019-04-05T02:53:37.679Z,19.50
2019-04-05T02:56:07.823Z,20.57
2019-04-05T02:58:38.584Z,22.32
2019-04-05T03:01:07.645Z,20.88
2019-04-05T03:03:37.049Z,23.20
2019-04-05T03:06:08.548Z,23.45
2019-04-05T03:08:39.496Z,21.50
2019-04-05T03:11:13.142Z,21.60
2019-04-05T03:13:50.312Z,24.60
2019-04-05T03:16:39.607Z,21.60
2019-04-05T03:18:58.804Z,22.95
2019-04-05T03:21:30.472Z,21.60
2019-04-05T03:24:03.127Z,21.00
2019-04-05T03:26:35.185Z,24.93
2019-04-05T03:29:07.774Z,22.30
2019-04-05T03:31:37.170Z,24.30
2019-04-05T03:34:06.637Z,22.90
2019-04-05T03:36:37.197Z,24.47
2019-04-05T03:39:07.769Z,24.00
2019-04-05T03:41:37.950Z,24.98
2019-04-05T03:44:08.460Z,24.45
2019-04-05T03:46:38.194Z,23.75
2019-04-05T03:49:07.702Z,22.48
2019-04-05T03:51:36.946Z,24.32
2019-04-05T03:54:06.423Z,24.40
2019-04-05T03:56:37.968Z,24.20
2019-04-05T03:59:06.957Z,21.15
2019-04-05T04:01:36.340Z,22.58
2019-04-05T04:04:06.013Z,26.60
2019-04-05T04:06:35.065Z,24.77
2019-04-05T04:09:05.986Z,26.00
2019-04-05T04:11:36.113Z,24.00
2019-04-05T04:14:06.429Z,24.07
2019-04-05T04:16:36.486Z,26.07
2019-04-05T04:19:05.793Z,28.25
2019-04-05T04:22:25.312Z,24.77
2019-04-05T04:24:54.703Z,25.05
2019-04-05T04:27:24.841Z,24.77
2019-04-05T04:29:54.566Z,24.27
2019-04-05T04:32:24.871Z,26.55
2019-04-05T04:34:54.950Z,22.70
2019-04-05T04:37:23.993Z,31.30
2019-04-05T04:39:53.481Z,31.55
2019-04-05T04:42:23.917Z,28.15
2019-04-05T04:44:53.711Z,32.80
2019-04-05T04:47:27.054Z,26.48
2019-04-05T04:49:56.740Z,30.97
2019-04-05T04:52:26.345Z,26.77
2019-04-05T04:54:55.739Z,24.20
2019-04-05T04:57:25.449Z,37.88
2019-04-05T04:59:55.116Z,29.85
2019-04-05T05:02:24.165Z,28.98
2019-04-05T05:04:53.863Z,29.30
2019-04-05T05:07:22.898Z,35.87
2019-04-05T05:09:52.359Z,35.52
2019-04-05T05:12:21.858Z,31.55
2019-04-05T05:14:51.704Z,30.25
2019-04-05T05:17:21.077Z,28.57
2019-04-05T05:19:50.886Z,31.35
2019-04-05T05:22:20.508Z,27.02
2019-04-05T05:24:49.543Z,28.67
2019-04-05T05:27:18.884Z,26.70
2019-04-05T05:29:48.605Z,25.80
2019-04-05T05:32:18.200Z,24.75
2019-04-05T05:34:47.700Z,27.03
2019-04-05T05:37:17.109Z,27.60
2019-04-05T05:39:46.521Z,24.70
2019-04-05T05:42:15.625Z,26.68
2019-04-05T05:44:45.009Z,26.37
2019-04-05T05:47:14.052Z,24.20
2019-04-05T05:49:43.706Z,26.12
2019-04-05T05:52:13.417Z,24.53
2019-04-05T05:54:42.822Z,28.32
2019-04-05T05:57:12.421Z,29.90
2019-04-05T05:59:41.456Z,25.62
2019-04-05T06:02:10.487Z,25.15
2019-04-05T06:04:40.223Z,26.37
2019-04-05T06:07:09.516Z,26.02
2019-04-05T06:09:38.820Z,26.80
2019-04-05T06:12:07.858Z,25.55
2019-04-05T06:14:37.081Z,25.90
2019-04-05T06:17:06.113Z,25.68
2019-04-05T06:19:35.536Z,25.50
2019-04-05T06:22:04.565Z,26.62
2019-04-05T06:24:33.900Z,27.00
2019-04-05T06:27:02.929Z,25.32
2019-04-05T06:29:31.973Z,25.43
2019-04-05T06:32:01.285Z,26.50
2019-04-05T06:34:30.894Z,28.20
2019-04-05T06:36:59.916Z,23.92
2019-04-05T06:39:29.185Z,25.60
2019-04-05T06:41:58.225Z,23.05
2019-04-05T06:44:28.229Z,25.10
2019-04-05T06:46:57.701Z,24.83
2019-04-05T06:49:27.043Z,23.20
2019-04-05T06:51:56.409Z,25.25
2019-04-05T06:54:25.481Z,22.27
2019-04-05T06:56:54.512Z,24.32
2019-04-05T06:59:23.893Z,26.05
2019-04-05T07:01:52.946Z,27.02
2019-04-05T07:04:22.300Z,22.90
2019-04-05T07:06:51.337Z,24.57
2019-04-05T07:09:20.369Z,23.22
2019-04-05T07:11:49.668Z,23.00
2019-04-05T07:14:18.959Z,25.07
2019-04-05T07:16:48.127Z,21.17
2019-04-05T07:19:17.465Z,23.32
2019-04-05T07:21:47.183Z,25.68
2019-04-05T07:24:16.509Z,25.65
2019-04-05T07:26:45.583Z,24.70
2019-04-05T07:29:15.013Z,24.55
2019-04-05T07:31:44.372Z,25.43
2019-04-05T07:34:13.337Z,19.93
2019-04-05T07:36:42.428Z,24.95
2019-04-05T07:39:12.070Z,22.22
2019-04-05T07:41:41.687Z,22.37
2019-04-05T07:44:10.961Z,29.15
2019-04-05T07:46:39.995Z,26.00
2019-04-05T07:49:09.584Z,24.05
2019-04-05T07:51:39.283Z,22.82
2019-04-05T07:54:09.209Z,21.00
2019-04-05T07:56:38.611Z,23.07
2019-04-05T07:59:07.901Z,25.05
2019-04-05T08:01:36.948Z,24.23
2019-04-05T08:04:06.061Z,21.77
2019-04-05T08:06:37.597Z,24.37
2019-04-05T08:09:13.019Z,20.77
2019-04-05T08:11:44.404Z,20.50
2019-04-05T08:14:14.084Z,26.23
2019-04-05T08:16:43.127Z,22.35
2019-04-05T08:19:12.551Z,21.87
2019-04-05T08:21:41.845Z,20.25
2019-04-05T08:24:10.893Z,19.50
2019-04-05T08:26:40.184Z,21.80
2019-04-05T08:29:09.207Z,24.18
2019-04-05T08:31:38.840Z,19.77
2019-04-05T08:34:07.885Z,19.77
2019-04-05T08:36:36.996Z,26.42
2019-04-05T08:39:08.192Z,19.42
2019-04-05T08:41:37.303Z,21.90
2019-04-05T08:44:06.657Z,22.98
2019-04-05T08:46:35.946Z,21.57
2019-04-05T08:49:11.177Z,20.23
2019-04-05T08:51:36.912Z,21.10
2019-04-05T08:54:06.317Z,23.57
2019-04-05T08:56:35.371Z,20.37
2019-04-05T08:59:04.438Z,23.52
2019-04-05T09:01:33.844Z,20.92
2019-04-05T09:04:02.736Z,22.02
2019-04-05T09:06:32.060Z,23.07
2019-04-05T09:09:01.404Z,20.20
2019-04-05T09:11:30.692Z,18.75
2019-04-05T09:14:00.097Z,20.20
2019-04-05T09:16:29.069Z,21.30
2019-04-05T09:18:58.401Z,19.98
2019-04-05T09:21:27.706Z,21.70
2019-04-05T09:23:59.146Z,21.50
2019-04-05T09:26:27.840Z,19.50
2019-04-05T09:28:56.924Z,22.67
2019-04-05T09:31:26.340Z,20.12
2019-04-05T09:33:55.785Z,19.55
2019-04-05T09:36:25.033Z,18.60
2019-04-05T09:38:54.328Z,20.50
2019-04-05T09:41:23.636Z,20.10
2019-04-05T09:43:53.029Z,21.73
2019-04-05T09:46:22.316Z,19.47
2019-04-05T09:48:51.619Z,21.80
2019-04-05T09:51:20.927Z,21.97
2019-04-05T09:53:50.221Z,20.88
2019-04-05T09:56:19.244Z,21.65
2019-04-05T09:58:48.275Z,20.93
2019-04-05T10:01:36.676Z,23.70
2019-04-05T10:04:05.744Z,26.20
2019-04-05T10:06:34.975Z,18.55
2019-04-05T10:09:05.381Z,21.85
2019-04-05T10:11:34.675Z,20.17
2019-04-05T10:14:04.116Z,21.33
2019-04-05T10:16:33.140Z,23.55
2019-04-05T10:19:02.467Z,21.43
2019-04-05T10:21:32.133Z,18.40
2019-04-05T10:24:01.348Z,23.42
2019-04-05T10:26:30.676Z,28.45
2019-04-05T10:29:00.576Z,21.52
2019-04-05T10:31:29.893Z,23.35
2019-04-05T10:33:59.592Z,24.80
2019-04-05T10:36:28.897Z,23.12
2019-04-05T10:38:58.236Z,21.57
2019-04-05T10:41:27.264Z,22.10
2019-04-05T10:43:58.401Z,25.45
2019-04-05T10:46:27.628Z,22.17
2019-04-05T10:48:56.790Z,19.20
2019-04-05T10:51:26.227Z,19.67
2019-04-05T10:53:55.563Z,20.35
2019-04-05T10:56:24.939Z,18.98
2019-04-05T10:58:54.220Z,16.13
2019-04-05T11:01:23.641Z,21.13
2019-04-05T11:03:52.863Z,16.03
2019-04-05T11:06:21.913Z,21.40
2019-04-05T11:08:51.428Z,19.30
2019-04-05T11:11:20.465Z,23.87
2019-04-05T11:53:29.199Z,21.20
2019-04-05T11:55:58.272Z,22.27
2019-04-05T11:58:27.589Z,18.00
2019-04-05T12:01:02.784Z,18.15
2019-04-05T12:03:31.844Z,24.80
2019-04-05T12:06:00.901Z,19.30
2019-04-05T12:08:30.534Z,20.75
2019-04-05T12:11:00.036Z,21.30
2019-04-05T12:13:28.984Z,18.83
2019-04-05T12:15:58.399Z,17.97
2019-04-05T12:25:54.658Z,19.90
2019-04-05T12:28:24.176Z,17.40
2019-04-05T12:30:53.399Z,15.93
2019-04-05T12:33:23.010Z,15.57
2019-04-05T12:35:54.875Z,21.12
2019-04-05T12:38:33.139Z,19.23
2019-04-05T12:41:03.501Z,17.57
2019-04-05T12:43:33.221Z,15.63
2019-04-05T12:46:02.918Z,14.75
2019-04-05T12:48:32.301Z,17.95
2019-04-05T12:51:02.143Z,18.50
2019-04-05T12:53:32.666Z,19.62
2019-04-05T12:56:02.059Z,19.10
2019-04-05T12:58:32.940Z,19.05
2019-04-05T13:01:02.069Z,19.95
2019-04-05T13:03:31.124Z,16.93
2019-04-05T13:06:00.528Z,19.35
2019-04-05T13:08:29.571Z,16.70
2019-04-05T13:10:58.627Z,19.73
2019-04-05T13:13:28.088Z,19.48
2019-04-05T13:15:59.342Z,21.20
2019-04-05T13:18:30.487Z,14.43
2019-04-05T13:21:00.280Z,16.73
2019-04-05T13:23:30.088Z,19.27
2019-04-05T13:26:00.015Z,18.23
2019-04-05T13:28:29.149Z,17.90
2019-04-05T13:30:58.116Z,16.75
2019-04-05T13:33:29.131Z,16.67
2019-04-05T13:35:58.942Z,20.65
2019-04-05T13:38:29.831Z,18.90
2019-04-05T13:41:01.408Z,20.03
2019-04-05T13:43:31.840Z,19.17
2019-04-05T13:46:01.569Z,18.05
2019-04-05T13:48:30.612Z,20.92
2019-04-05T13:51:00.064Z,16.40
2019-04-05T13:53:29.429Z,16.17
2019-04-05T13:55:58.774Z,19.15
2019-04-05T13:58:28.116Z,21.57
2019-04-05T14:00:57.079Z,17.10
2019-04-05T14:03:26.461Z,17.60
2019-04-05T14:05:55.804Z,15.70
2019-04-05T14:08:24.967Z,16.47
2019-04-05T14:10:53.944Z,18.65
2019-04-05T14:13:23.412Z,18.70
2019-04-05T14:15:52.752Z,16.10
2019-04-05T14:18:21.817Z,17.43
2019-04-05T14:20:51.148Z,14.85
2019-04-05T14:23:23.304Z,16.55
2019-04-05T14:25:51.080Z,16.05
2019-04-05T14:28:20.482Z,14.25
2019-04-05T14:30:49.840Z,18.55
2019-04-05T14:33:18.905Z,17.05
2019-04-05T14:35:47.868Z,16.45
2019-04-05T14:38:16.981Z,16.00
2019-04-05T14:40:46.568Z,17.52
2019-04-05T14:43:15.973Z,16.55
2019-04-05T14:45:45.273Z,17.17
2019-04-05T14:48:15.088Z,15.48
2019-04-05T14:50:44.480Z,17.80
2019-04-05T14:53:13.513Z,18.12
2019-04-05T14:55:42.551Z,17.70
2019-04-05T14:58:11.873Z,16.30
2019-04-05T15:00:41.170Z,18.43
2019-04-05T15:03:10.775Z,17.50
2019-04-05T15:05:39.827Z,18.45
2019-04-05T15:08:09.384Z,17.65
2019-04-05T15:10:39.093Z,18.57
2019-04-05T15:13:08.395Z,20.23
2019-04-05T15:15:37.428Z,26.00
2019-04-05T15:18:06.826Z,20.80
2019-04-05T15:20:36.181Z,23.20
2019-04-05T15:23:05.203Z,19.00
2019-04-05T15:25:34.501Z,23.67
2019-04-05T15:28:03.488Z,24.18
2019-04-05T15:30:32.776Z,27.62
2019-04-05T15:33:04.285Z,35.95
2019-04-05T15:35:33.616Z,30.47
2019-04-05T15:38:02.708Z,30.13
2019-04-05T15:40:31.766Z,30.68
2019-04-05T15:43:01.412Z,29.65
2019-04-05T15:45:30.451Z,26.12
2019-04-05T15:47:59.850Z,25.65
2019-04-05T15:50:29.208Z,27.83
2019-04-05T15:52:59.656Z,29.72
2019-04-05T15:55:33.398Z,28.07
2019-04-05T15:58:03.392Z,24.90
2019-04-05T16:00:41.241Z,28.02
2019-04-05T16:03:10.248Z,25.00
2019-04-05T16:05:39.756Z,25.20
2019-04-05T16:08:09.101Z,25.05
2019-04-05T16:10:38.407Z,28.70
2019-04-05T16:13:08.268Z,26.95
2019-04-05T16:15:37.662Z,26.47
2019-04-05T16:18:08.511Z,26.20
2019-04-05T16:20:37.560Z,31.05
2019-04-05T16:23:06.588Z,28.38
2019-04-05T16:25:36.501Z,30.45
2019-04-05T16:28:06.605Z,30.10
2019-04-05T16:30:35.697Z,29.25
2019-04-05T16:33:05.116Z,30.08
2019-04-05T16:35:34.153Z,32.23
2019-04-05T16:38:03.608Z,29.67
2019-04-05T16:40:32.954Z,29.07
2019-04-05T16:43:03.116Z,31.70
2019-04-05T16:45:32.744Z,29.80
2019-04-05T16:48:02.045Z,30.70
2019-04-05T16:50:31.078Z,32.28
2019-04-05T16:52:59.957Z,35.88
2019-04-05T16:55:29.224Z,38.35
2019-04-05T16:57:58.839Z,33.45
2019-04-05T17:00:27.863Z,39.85
2019-04-05T17:02:57.225Z,36.07
2019-04-05T17:05:26.625Z,33.70
2019-04-05T17:07:55.936Z,35.10
2019-04-05T17:10:25.232Z,34.20
2019-04-05T17:12:54.528Z,41.42
2019-04-05T17:15:23.928Z,36.42
2019-04-05T17:17:53.248Z,32.80
2019-04-05T17:20:22.540Z,38.53
2019-04-05T17:22:57.968Z,34.18
2019-04-05T17:25:22.356Z,34.50
2019-04-05T17:27:51.962Z,33.07
2019-04-05T17:30:21.481Z,34.78
2019-04-05T17:32:51.177Z,34.38
2019-04-05T17:35:20.708Z,33.97
2019-04-05T17:37:50.392Z,32.98
2019-04-05T17:40:19.437Z,30.65
2019-04-05T17:42:49.148Z,35.73
2019-04-05T17:45:18.491Z,33.97
2019-04-05T17:47:47.465Z,34.48
2019-04-05T17:50:37.574Z,36.77
2019-04-05T17:53:12.746Z,32.67
2019-04-05T17:55:37.752Z,35.08
2019-04-05T17:58:07.532Z,39.18
2019-04-05T18:00:37.048Z,31.60
2019-04-05T18:03:06.425Z,33.00
2019-04-05T18:05:35.475Z,41.70
2019-04-05T18:08:04.819Z,35.98
2019-04-05T18:10:33.888Z,33.95
2019-04-05T18:13:03.107Z,36.37
2019-04-05T18:15:32.144Z,30.50
2019-04-05T18:18:01.216Z,32.28
2019-04-05T18:20:30.704Z,34.43
2019-04-05T18:22:59.772Z,34.20
2019-04-05T18:25:29.109Z,32.15
2019-04-05T18:27:58.500Z,30.95
2019-04-05T18:30:27.564Z,35.08
2019-04-05T18:32:56.643Z,39.85
2019-04-05T18:35:26.400Z,43.63
2019-04-05T18:37:56.105Z,37.65
2019-04-05T18:40:25.411Z,40.33
2019-04-05T18:42:54.443Z,44.90
2019-04-05T18:45:23.800Z,42.93
2019-04-05T18:47:53.105Z,37.98
2019-04-05T18:50:22.811Z,39.27
2019-04-05T18:52:51.723Z,31.35
2019-04-05T18:55:21.000Z,35.78
2019-04-05T18:57:50.305Z,32.23
2019-04-05T19:00:19.759Z,33.35
2019-04-05T19:02:48.715Z,33.65
2019-04-05T19:05:18.053Z,36.10
2019-04-05T19:07:47.476Z,36.42
2019-04-05T19:10:16.957Z,44.85
2019-04-05T19:12:45.907Z,37.58
2019-04-05T19:15:15.497Z,38.23
2019-04-05T19:17:44.529Z,32.50
2019-04-05T19:20:14.002Z,34.45
2019-04-05T19:22:43.040Z,38.87
2019-04-05T19:25:12.805Z,35.68
2019-04-05T19:27:42.120Z,40.17
2019-04-05T19:50:19.157Z,35.92
2019-04-05T19:52:48.462Z,31.05
2019-04-05T19:55:17.471Z,32.60
2019-04-05T19:57:46.810Z,34.03
2019-04-05T20:00:16.497Z,27.98
2019-04-05T20:02:45.440Z,33.70
2019-04-05T20:05:14.488Z,31.73
2019-04-05T20:07:43.792Z,31.80
2019-04-05T20:10:12.840Z,29.77
2019-04-05T20:12:42.082Z,29.20
2019-04-05T20:15:11.407Z,30.75
2019-04-05T20:17:40.471Z,32.95
2019-04-05T20:20:10.288Z,30.52
2019-04-05T20:22:39.895Z,34.67
2019-04-05T20:25:08.944Z,33.92
2019-04-05T20:27:38.295Z,29.40
2019-04-05T20:30:07.760Z,31.37
2019-04-05T20:32:37.096Z,31.85
2019-04-05T20:35:06.424Z,28.70
2019-04-05T20:37:35.696Z,32.13
2019-04-05T20:40:05.788Z,36.80
2019-04-05T20:42:35.109Z,31.48
2019-04-05T20:45:04.359Z,30.83
2019-04-05T20:47:33.717Z,27.03
2019-04-05T20:50:03.012Z,30.57
2019-04-05T20:52:32.212Z,32.85
2019-04-05T20:55:01.392Z,32.38
2019-04-05T20:57:30.441Z,32.50
2019-04-05T20:59:59.999Z,30.45
2019-04-05T21:02:29.621Z,34.40
2019-04-05T21:04:58.925Z,36.85
2019-04-05T21:07:27.835Z,34.50
2019-04-05T21:09:56.793Z,37.38
2019-04-05T21:12:25.827Z,37.10
2019-04-05T21:14:55.125Z,39.85
2019-04-05T21:17:23.999Z,35.50
2019-04-05T21:19:53.196Z,38.28
2019-04-05T21:22:22.884Z,39.00
2019-04-05T21:24:51.899Z,40.15
2019-04-05T21:27:21.584Z,38.53
2019-04-05T21:29:50.996Z,37.78
2019-04-05T21:32:20.444Z,33.40
2019-04-05T21:34:49.793Z,35.83
2019-04-05T21:37:19.044Z,39.53
2019-04-05T21:39:48.293Z,36.65
2019-04-05T21:42:17.583Z,34.03
2019-04-05T21:44:46.638Z,33.38
2019-04-05T21:47:15.680Z,31.75
2019-04-05T21:49:45.243Z,37.20
2019-04-05T21:52:14.293Z,32.28
2019-04-05T21:54:47.812Z,35.68
2019-04-05T21:57:14.016Z,34.38
2019-04-05T21:59:43.396Z,32.73
2019-04-05T22:02:12.812Z,34.13
2019-04-05T22:04:42.100Z,36.50
2019-04-05T22:07:11.336Z,38.73
2019-04-05T22:09:40.501Z,35.48
2019-04-05T22:12:09.557Z,30.10
2019-04-05T22:14:38.571Z,31.03
2019-04-05T22:17:07.606Z,36.20
2019-04-05T22:19:37.172Z,38.88
2019-04-05T22:22:06.481Z,39.20
2019-04-05T22:24:36.100Z,38.70
2019-04-05T22:27:05.136Z,38.10
2019-04-05T22:29:34.204Z,37.55
2019-04-05T22:32:03.475Z,32.80
2019-04-05T22:34:32.524Z,34.18
2019-04-05T22:37:01.768Z,34.83
2019-04-05T22:39:31.372Z,37.40
2019-04-05T22:42:00.977Z,32.85
2019-04-05T22:44:38.069Z,37.73
2019-04-05T22:47:01.424Z,38.05
2019-04-05T22:49:30.720Z,35.75
2019-04-05T22:51:59.757Z,34.18
2019-04-05T22:54:29.112Z,37.23
2019-04-05T22:56:58.524Z,35.90
2019-04-05T22:59:27.920Z,35.03
2019-04-05T23:01:57.220Z,34.33
2019-04-05T23:04:26.481Z,38.80
2019-04-05T23:06:55.818Z,34.50
2019-04-05T23:09:24.863Z,36.05
2019-04-05T23:11:54.532Z,35.83
2019-04-05T23:14:23.597Z,30.70
2019-04-05T23:16:52.635Z,36.28
2019-04-05T23:19:21.686Z,35.30
2019-04-05T23:21:50.900Z,34.45
2019-04-05T23:24:20.200Z,33.50
2019-04-05T23:26:49.651Z,31.07
2019-04-05T23:29:18.913Z,36.75
2019-04-05T23:31:48.908Z,39.65
2019-04-05T23:34:18.801Z,38.38
2019-04-05T23:36:48.029Z,41.73
2019-04-05T23:39:17.432Z,35.83
2019-04-05T23:41:47.205Z,39.83
2019-04-05T23:44:16.249Z,38.83
2019-04-05T23:46:45.433Z,40.60
2019-04-05T23:49:14.424Z,38.67
2019-04-05T23:51:44.028Z,40.00
2019-04-05T23:54:13.649Z,35.25
2019-04-05T23:56:42.949Z,36.45
2019-04-05T23:59:12.285Z,36.58
